BCS81 EDDP-LKTB
Flight info
| Callsign | BCS81 |
|---|---|
| Flight time | 0h 40m |
| Altitude | 35000 |
| Route | DRN2S DRN Z21 OMELO DCT VLM DCT TUMKA |
| Aircraft | A306/H-SDE1FGHIRWXYZ/HB1 |
Departure
| Time | 2026-04-26 20:52 |
|---|---|
| Airport | Leipzig/Halle Airport (EDDP) |
Arrival
| Time | 2026-04-26 21:32 |
|---|---|
| Airport | Brno-Tuřany Airport (LKTB) |
| Time | Latitude | Longitude | Altitude | Speed | Heading |
|---|---|---|---|---|---|
| 2026-04-26 20:24 | 51.40784 | 12.24355 | 469 ft | 0 kts | 85° |
| 2026-04-26 20:41 | 51.40782 | 12.24321 | 467 ft | 4 kts | 84° |
| 2026-04-26 20:41 | 51.40778 | 12.24278 | 466 ft | 4 kts | 75° |
| 2026-04-26 20:41 | 51.40769 | 12.24240 | 465 ft | 4 kts | 49° |
| 2026-04-26 20:41 | 51.40767 | 12.24235 | 465 ft | 4 kts | 37° |
| 2026-04-26 20:42 | 51.40792 | 12.24244 | 464 ft | 5 kts | 4° |
| 2026-04-26 20:42 | 51.40818 | 12.24242 | 468 ft | 5 kts | 355° |
| 2026-04-26 20:42 | 51.40827 | 12.24241 | 469 ft | 2 kts | 355° |
| 2026-04-26 20:45 | 51.40830 | 12.24240 | 468 ft | 0 kts | 355° |
| 2026-04-26 20:47 | 51.40841 | 12.24239 | 470 ft | 7 kts | 354° |
| 2026-04-26 20:47 | 51.40891 | 12.24232 | 472 ft | 15 kts | 355° |
| 2026-04-26 20:47 | 51.40953 | 12.24224 | 472 ft | 3 kts | 356° |
| 2026-04-26 20:47 | 51.40982 | 12.24220 | 469 ft | 9 kts | 355° |
| 2026-04-26 20:48 | 51.41040 | 12.24217 | 470 ft | 7 kts | 11° |
| 2026-04-26 20:48 | 51.41082 | 12.24296 | 476 ft | 14 kts | 73° |
| 2026-04-26 20:48 | 51.41092 | 12.24492 | 476 ft | 20 kts | 86° |
| 2026-04-26 20:48 | 51.41102 | 12.24705 | 472 ft | 18 kts | 86° |
| 2026-04-26 20:49 | 51.41109 | 12.24899 | 478 ft | 17 kts | 85° |
| 2026-04-26 20:49 | 51.41119 | 12.25082 | 471 ft | 16 kts | 86° |
| 2026-04-26 20:49 | 51.41126 | 12.25256 | 478 ft | 15 kts | 85° |
| 2026-04-26 20:49 | 51.41142 | 12.25405 | 476 ft | 12 kts | 60° |
| 2026-04-26 20:50 | 51.41199 | 12.25446 | 479 ft | 8 kts | 2° |
| 2026-04-26 20:50 | 51.41286 | 12.25410 | 475 ft | 19 kts | 331° |
| 2026-04-26 20:50 | 51.41372 | 12.25286 | 476 ft | 14 kts | 302° |
| 2026-04-26 20:50 | 51.41380 | 12.25154 | 481 ft | 9 kts | 265° |
| 2026-04-26 20:51 | 51.41374 | 12.25017 | 477 ft | 27 kts | 265° |
| 2026-04-26 20:51 | 51.41340 | 12.24302 | 482 ft | 100 kts | 266° |
| 2026-04-26 20:51 | 51.41271 | 12.22844 | 473 ft | 161 kts | 266° |
| 2026-04-26 20:51 | 51.41183 | 12.20884 | 938 ft | 186 kts | 266° |
| 2026-04-26 20:52 | 51.41090 | 12.18716 | 1699 ft | 205 kts | 266° |
| 2026-04-26 20:52 | 51.40987 | 12.16331 | 2263 ft | 228 kts | 266° |
| 2026-04-26 20:52 | 51.40873 | 12.13639 | 2838 ft | 251 kts | 266° |
| 2026-04-26 20:52 | 51.40731 | 12.10849 | 3982 ft | 248 kts | 261° |
| 2026-04-26 20:53 | 51.40177 | 12.08292 | 5246 ft | 245 kts | 238° |
| 2026-04-26 20:53 | 51.38914 | 12.06470 | 6330 ft | 252 kts | 207° |
| 2026-04-26 20:53 | 51.37150 | 12.05947 | 7068 ft | 271 kts | 174° |
| 2026-04-26 20:53 | 51.35304 | 12.06767 | 7924 ft | 280 kts | 160° |
| 2026-04-26 20:54 | 51.33456 | 12.07890 | 8864 ft | 288 kts | 160° |
| 2026-04-26 20:54 | 51.31563 | 12.09042 | 9815 ft | 294 kts | 160° |
| 2026-04-26 20:54 | 51.29616 | 12.10197 | 10644 ft | 304 kts | 161° |
| 2026-04-26 20:54 | 51.27586 | 12.11376 | 11044 ft | 326 kts | 161° |
| 2026-04-26 20:55 | 51.25382 | 12.12639 | 11379 ft | 347 kts | 162° |
| 2026-04-26 20:55 | 51.23044 | 12.13972 | 11718 ft | 366 kts | 162° |
| 2026-04-26 20:55 | 51.20587 | 12.15368 | 12033 ft | 384 kts | 162° |
| 2026-04-26 20:55 | 51.18023 | 12.16823 | 12512 ft | 395 kts | 162° |
| 2026-04-26 20:56 | 51.15415 | 12.18302 | 13157 ft | 400 kts | 162° |
| 2026-04-26 20:56 | 51.12778 | 12.19795 | 13867 ft | 405 kts | 162° |
| 2026-04-26 20:56 | 51.10123 | 12.21387 | 14485 ft | 411 kts | 158° |
| 2026-04-26 20:56 | 51.07633 | 12.23539 | 15103 ft | 417 kts | 148° |
| 2026-04-26 20:57 | 51.05394 | 12.26519 | 15744 ft | 423 kts | 135° |
| 2026-04-26 20:57 | 51.03572 | 12.30220 | 16384 ft | 428 kts | 123° |
| 2026-04-26 20:57 | 51.02263 | 12.34493 | 17014 ft | 433 kts | 110° |
| 2026-04-26 20:57 | 51.01543 | 12.39152 | 17619 ft | 437 kts | 97° |
| 2026-04-26 20:58 | 51.01387 | 12.43978 | 18213 ft | 440 kts | 89° |
| 2026-04-26 20:58 | 51.01424 | 12.48861 | 18757 ft | 444 kts | 88° |
| 2026-04-26 20:58 | 51.01476 | 12.53778 | 19258 ft | 448 kts | 88° |
| 2026-04-26 20:58 | 51.01518 | 12.58736 | 19757 ft | 451 kts | 88° |
| 2026-04-26 20:59 | 51.01550 | 12.63733 | 20253 ft | 454 kts | 88° |
| 2026-04-26 20:59 | 51.01575 | 12.68693 | 20727 ft | 457 kts | 88° |
| 2026-04-26 20:59 | 51.01595 | 12.73757 | 21208 ft | 460 kts | 88° |
| 2026-04-26 20:59 | 51.01612 | 12.78850 | 21684 ft | 463 kts | 88° |
| 2026-04-26 21:00 | 51.01626 | 12.83983 | 22145 ft | 466 kts | 88° |
| 2026-04-26 21:00 | 51.01638 | 12.89138 | 22579 ft | 470 kts | 89° |
| 2026-04-26 21:00 | 51.01647 | 12.94358 | 22994 ft | 473 kts | 89° |
| 2026-04-26 21:00 | 51.01653 | 12.99598 | 23431 ft | 476 kts | 89° |
| 2026-04-26 21:01 | 51.01658 | 13.04873 | 23863 ft | 479 kts | 89° |
| 2026-04-26 21:01 | 51.01659 | 13.10161 | 24205 ft | 482 kts | 89° |
| 2026-04-26 21:01 | 51.01659 | 13.15428 | 24538 ft | 484 kts | 89° |
| 2026-04-26 21:01 | 51.01656 | 13.20793 | 24873 ft | 486 kts | 89° |
| 2026-04-26 21:02 | 51.01650 | 13.26170 | 25204 ft | 489 kts | 89° |
| 2026-04-26 21:02 | 51.01642 | 13.31573 | 25529 ft | 491 kts | 89° |
| 2026-04-26 21:02 | 51.01632 | 13.37012 | 25836 ft | 494 kts | 89° |
| 2026-04-26 21:02 | 51.01619 | 13.42488 | 26111 ft | 497 kts | 89° |
| 2026-04-26 21:03 | 51.01602 | 13.47983 | 26416 ft | 499 kts | 89° |
| 2026-04-26 21:03 | 51.01485 | 13.53498 | 26709 ft | 502 kts | 94° |
| 2026-04-26 21:03 | 51.00902 | 13.58892 | 27004 ft | 504 kts | 104° |
| 2026-04-26 21:03 | 50.99711 | 13.64133 | 27238 ft | 506 kts | 115° |
| 2026-04-26 21:04 | 50.98051 | 13.69023 | 27281 ft | 498 kts | 121° |
| 2026-04-26 21:04 | 50.96275 | 13.73666 | 27285 ft | 488 kts | 123° |
| 2026-04-26 21:04 | 50.94450 | 13.78185 | 27288 ft | 485 kts | 124° |
| 2026-04-26 21:04 | 50.92481 | 13.82509 | 27284 ft | 484 kts | 128° |
| 2026-04-26 21:05 | 50.90426 | 13.86735 | 27288 ft | 483 kts | 129° |
| 2026-04-26 21:05 | 50.88382 | 13.90871 | 27285 ft | 483 kts | 129° |
| 2026-04-26 21:05 | 50.86303 | 13.95054 | 27278 ft | 483 kts | 129° |
| 2026-04-26 21:05 | 50.84063 | 13.99004 | 27281 ft | 482 kts | 139° |
| 2026-04-26 21:06 | 50.81424 | 14.02234 | 27291 ft | 479 kts | 147° |
| 2026-04-26 21:06 | 50.78659 | 14.05160 | 27290 ft | 478 kts | 149° |
| 2026-04-26 21:06 | 50.75838 | 14.07945 | 27290 ft | 478 kts | 151° |
| 2026-04-26 21:06 | 50.72995 | 14.10656 | 27285 ft | 478 kts | 152° |
| 2026-04-26 21:07 | 50.70135 | 14.13349 | 27281 ft | 477 kts | 152° |
| 2026-04-26 21:07 | 50.67324 | 14.15995 | 27271 ft | 477 kts | 151° |
| 2026-04-26 21:07 | 50.64494 | 14.18671 | 27278 ft | 473 kts | 151° |
| 2026-04-26 21:07 | 50.61689 | 14.21336 | 27278 ft | 470 kts | 151° |
| 2026-04-26 21:08 | 50.58891 | 14.24001 | 27280 ft | 470 kts | 151° |
| 2026-04-26 21:08 | 50.56095 | 14.26666 | 27274 ft | 469 kts | 151° |
| 2026-04-26 21:08 | 50.53318 | 14.29314 | 27273 ft | 469 kts | 151° |
| 2026-04-26 21:08 | 50.50514 | 14.31983 | 27275 ft | 469 kts | 151° |
| 2026-04-26 21:09 | 50.47757 | 14.34604 | 27282 ft | 469 kts | 151° |
| 2026-04-26 21:09 | 50.44966 | 14.37254 | 27280 ft | 469 kts | 151° |
| 2026-04-26 21:09 | 50.42172 | 14.39902 | 27268 ft | 469 kts | 151° |
| 2026-04-26 21:09 | 50.39385 | 14.42541 | 27275 ft | 468 kts | 151° |
| 2026-04-26 21:10 | 50.36595 | 14.45178 | 27283 ft | 468 kts | 151° |
| 2026-04-26 21:10 | 50.33807 | 14.47811 | 27279 ft | 468 kts | 151° |
| 2026-04-26 21:10 | 50.31019 | 14.50438 | 27278 ft | 468 kts | 151° |
| 2026-04-26 21:10 | 50.28227 | 14.53066 | 27279 ft | 468 kts | 151° |
| 2026-04-26 21:11 | 50.25433 | 14.55692 | 27283 ft | 468 kts | 151° |
| 2026-04-26 21:11 | 50.22678 | 14.58277 | 27283 ft | 468 kts | 151° |
| 2026-04-26 21:11 | 50.19881 | 14.60899 | 27290 ft | 468 kts | 151° |
| 2026-04-26 21:11 | 50.17087 | 14.63515 | 27286 ft | 468 kts | 151° |
| 2026-04-26 21:12 | 50.14296 | 14.66125 | 27282 ft | 465 kts | 151° |
| 2026-04-26 21:12 | 50.11539 | 14.68701 | 27285 ft | 460 kts | 151° |
| 2026-04-26 21:12 | 50.08803 | 14.71253 | 27291 ft | 458 kts | 152° |
| 2026-04-26 21:12 | 50.06072 | 14.73795 | 27280 ft | 458 kts | 152° |
| 2026-04-26 21:13 | 50.03337 | 14.76336 | 27284 ft | 458 kts | 152° |
| 2026-04-26 21:13 | 50.00603 | 14.78874 | 27285 ft | 458 kts | 152° |
| 2026-04-26 21:13 | 49.97899 | 14.81381 | 27273 ft | 458 kts | 152° |
| 2026-04-26 21:13 | 49.95159 | 14.83918 | 27269 ft | 459 kts | 152° |
| 2026-04-26 21:14 | 49.92427 | 14.86445 | 27112 ft | 454 kts | 152° |
| 2026-04-26 21:14 | 49.89745 | 14.88925 | 26803 ft | 442 kts | 152° |
| 2026-04-26 21:14 | 49.87123 | 14.91348 | 26231 ft | 437 kts | 152° |
| 2026-04-26 21:14 | 49.84511 | 14.93754 | 25595 ft | 435 kts | 152° |
| 2026-04-26 21:15 | 49.81919 | 14.96139 | 25035 ft | 432 kts | 152° |
| 2026-04-26 21:15 | 49.79348 | 14.98502 | 24479 ft | 429 kts | 152° |
| 2026-04-26 21:15 | 49.76791 | 15.00848 | 23890 ft | 426 kts | 152° |
| 2026-04-26 21:15 | 49.74282 | 15.03148 | 23253 ft | 423 kts | 152° |
| 2026-04-26 21:16 | 49.71860 | 15.05705 | 22710 ft | 422 kts | 142° |
| 2026-04-26 21:16 | 49.69884 | 15.09043 | 22135 ft | 422 kts | 126° |
| 2026-04-26 21:16 | 49.68385 | 15.12928 | 21551 ft | 421 kts | 119° |
| 2026-04-26 21:16 | 49.67024 | 15.16924 | 20973 ft | 420 kts | 118° |
| 2026-04-26 21:17 | 49.65692 | 15.20920 | 20387 ft | 418 kts | 117° |
| 2026-04-26 21:17 | 49.64365 | 15.24911 | 19784 ft | 417 kts | 117° |
| 2026-04-26 21:17 | 49.63042 | 15.28882 | 19185 ft | 415 kts | 117° |
| 2026-04-26 21:17 | 49.61739 | 15.32788 | 18431 ft | 417 kts | 117° |
| 2026-04-26 21:18 | 49.60405 | 15.36776 | 17631 ft | 418 kts | 117° |
| 2026-04-26 21:18 | 49.59077 | 15.40742 | 17010 ft | 414 kts | 117° |
| 2026-04-26 21:18 | 49.57762 | 15.44663 | 16415 ft | 410 kts | 117° |
| 2026-04-26 21:18 | 49.56458 | 15.48544 | 15810 ft | 406 kts | 117° |
| 2026-04-26 21:19 | 49.55166 | 15.52384 | 15215 ft | 402 kts | 117° |
| 2026-04-26 21:19 | 49.53882 | 15.56193 | 14634 ft | 398 kts | 117° |
| 2026-04-26 21:19 | 49.52609 | 15.59963 | 14027 ft | 395 kts | 117° |
| 2026-04-26 21:19 | 49.51345 | 15.63705 | 13338 ft | 392 kts | 117° |
| 2026-04-26 21:20 | 49.50110 | 15.67351 | 12778 ft | 387 kts | 117° |
| 2026-04-26 21:20 | 49.48874 | 15.70999 | 12194 ft | 382 kts | 117° |
| 2026-04-26 21:20 | 49.47655 | 15.74590 | 11644 ft | 377 kts | 117° |
| 2026-04-26 21:20 | 49.46445 | 15.78150 | 11082 ft | 373 kts | 117° |
| 2026-04-26 21:21 | 49.45249 | 15.81663 | 10511 ft | 369 kts | 117° |
| 2026-04-26 21:21 | 49.44077 | 15.85101 | 10292 ft | 355 kts | 117° |
| 2026-04-26 21:21 | 49.42957 | 15.88378 | 10192 ft | 338 kts | 117° |
| 2026-04-26 21:21 | 49.41888 | 15.91508 | 10083 ft | 324 kts | 117° |
| 2026-04-26 21:22 | 49.40851 | 15.94511 | 9932 ft | 312 kts | 118° |
| 2026-04-26 21:22 | 49.39818 | 15.97360 | 9527 ft | 310 kts | 119° |
| 2026-04-26 21:22 | 49.38765 | 16.00213 | 9160 ft | 306 kts | 120° |
| 2026-04-26 21:23 | 49.36679 | 16.05841 | 8391 ft | 301 kts | 120° |
| 2026-04-26 21:23 | 49.35655 | 16.08602 | 8095 ft | 296 kts | 120° |
| 2026-04-26 21:23 | 49.34642 | 16.11332 | 7717 ft | 293 kts | 120° |
| 2026-04-26 21:23 | 49.33638 | 16.14034 | 7355 ft | 291 kts | 120° |
| 2026-04-26 21:24 | 49.32626 | 16.16695 | 7001 ft | 288 kts | 123° |
| 2026-04-26 21:24 | 49.31456 | 16.19163 | 6640 ft | 285 kts | 128° |
| 2026-04-26 21:24 | 49.30232 | 16.21526 | 6258 ft | 282 kts | 129° |
| 2026-04-26 21:24 | 49.29026 | 16.23826 | 5891 ft | 279 kts | 129° |
| 2026-04-26 21:25 | 49.27815 | 16.26136 | 5540 ft | 276 kts | 128° |
| 2026-04-26 21:25 | 49.26638 | 16.28386 | 5380 ft | 266 kts | 128° |
| 2026-04-26 21:25 | 49.25505 | 16.30551 | 5234 ft | 255 kts | 128° |
| 2026-04-26 21:25 | 49.24414 | 16.32635 | 5055 ft | 248 kts | 128° |
| 2026-04-26 21:26 | 49.23333 | 16.34656 | 4774 ft | 245 kts | 131° |
| 2026-04-26 21:26 | 49.22029 | 16.36311 | 4450 ft | 244 kts | 146° |
| 2026-04-26 21:26 | 49.20589 | 16.37640 | 4239 ft | 238 kts | 149° |
| 2026-04-26 21:26 | 49.19209 | 16.38865 | 4050 ft | 227 kts | 146° |
| 2026-04-26 21:27 | 49.18059 | 16.40408 | 3733 ft | 216 kts | 126° |
| 2026-04-26 21:27 | 49.17441 | 16.42448 | 3455 ft | 209 kts | 102° |
| 2026-04-26 21:27 | 49.17208 | 16.44579 | 3297 ft | 198 kts | 96° |
| 2026-04-26 21:27 | 49.17045 | 16.46612 | 3173 ft | 188 kts | 95° |
| 2026-04-26 21:28 | 49.16891 | 16.48542 | 3065 ft | 178 kts | 96° |
| 2026-04-26 21:28 | 49.16743 | 16.50375 | 2946 ft | 169 kts | 96° |
| 2026-04-26 21:28 | 49.16601 | 16.52120 | 2818 ft | 159 kts | 96° |
| 2026-04-26 21:28 | 49.16469 | 16.53695 | 2622 ft | 141 kts | 96° |
| 2026-04-26 21:29 | 49.16350 | 16.55094 | 2381 ft | 129 kts | 96° |
| 2026-04-26 21:29 | 49.16238 | 16.56427 | 2185 ft | 126 kts | 96° |
| 2026-04-26 21:29 | 49.16126 | 16.57757 | 2086 ft | 127 kts | 95° |
| 2026-04-26 21:29 | 49.16016 | 16.59072 | 1974 ft | 122 kts | 95° |
| 2026-04-26 21:30 | 49.15891 | 16.60349 | 1816 ft | 122 kts | 97° |
| 2026-04-26 21:30 | 49.15764 | 16.61635 | 1641 ft | 124 kts | 96° |
| 2026-04-26 21:30 | 49.15662 | 16.62958 | 1476 ft | 126 kts | 94° |
| 2026-04-26 21:30 | 49.15562 | 16.64275 | 1294 ft | 126 kts | 95° |
| 2026-04-26 21:31 | 49.15450 | 16.65611 | 1117 ft | 127 kts | 96° |
| 2026-04-26 21:31 | 49.15335 | 16.66955 | 947 ft | 128 kts | 95° |
| 2026-04-26 21:31 | 49.15223 | 16.68278 | 803 ft | 120 kts | 96° |
| 2026-04-26 21:31 | 49.15139 | 16.69330 | 804 ft | 76 kts | 96° |
| 2026-04-26 21:32 | 49.15113 | 16.69791 | 803 ft | 20 kts | 66° |
| 2026-04-26 21:32 | 49.15193 | 16.69852 | 807 ft | 9 kts | 7° |
| 2026-04-26 21:32 | 49.15247 | 16.69860 | 808 ft | 6 kts | 359° |
| 2026-04-26 21:32 | 49.15274 | 16.69834 | 808 ft | 4 kts | 307° |
| 2026-04-26 21:33 | 49.15286 | 16.69791 | 808 ft | 5 kts | 287° |
| 2026-04-26 21:33 | 49.15291 | 16.69746 | 808 ft | 4 kts | 277° |
| 2026-04-26 21:33 | 49.15304 | 16.69603 | 808 ft | 16 kts | 278° |
| 2026-04-26 21:33 | 49.15319 | 16.69436 | 808 ft | 15 kts | 277° |
| 2026-04-26 21:34 | 49.15333 | 16.69279 | 808 ft | 15 kts | 277° |
| 2026-04-26 21:34 | 49.15346 | 16.69130 | 808 ft | 14 kts | 278° |
| 2026-04-26 21:34 | 49.15356 | 16.68989 | 808 ft | 13 kts | 276° |
| 2026-04-26 21:34 | 49.15370 | 16.68857 | 808 ft | 12 kts | 279° |
| 2026-04-26 21:35 | 49.15383 | 16.68737 | 808 ft | 7 kts | 281° |
| 2026-04-26 21:35 | 49.15405 | 16.68711 | 808 ft | 4 kts | 333° |
| 2026-04-26 21:35 | 49.15438 | 16.68667 | 808 ft | 11 kts | 300° |
| 2026-04-26 21:35 | 49.15454 | 16.68563 | 808 ft | 6 kts | 270° |
| 2026-04-26 21:36 | 49.15445 | 16.68552 | 808 ft | 0 kts | 204° |
| 2026-04-26 21:36 | 49.15443 | 16.68552 | 808 ft | 1 kts | 194° |
| 2026-04-26 21:36 | 49.15442 | 16.68552 | 808 ft | 0 kts | 191° |
| 2026-04-26 21:37 | 49.15441 | 16.68553 | 808 ft | 0 kts | 191° |